Time;durP1;ratioP1;P1;durP2;ratioP2;P2;SDS_P1;SDS_P2;PMS_P1;PMS_P2;Temp;Humidity;BMP_temperature;BMP_pressure;BME280_temperature;BME280_humidity;BME280_pressure;Samples;Min_cycle;Max_cycle;Signal;HPM_P1;HPM_P2
2021/12/31 00:02:18;;;;;;;3.55;2.40;;;;;;;13.08;92.38;100693.81;10323094;28;20064;-68
2021/12/31 00:07:20;;;;;;;3.22;2.08;;;;;;;13.15;92.19;100688.81;10337105;28;20047;-68
2021/12/31 00:12:21;;;;;;;3.65;2.00;;;;;;;13.17;91.85;100691.34;10337834;28;20436;-69
2021/12/31 00:17:23;;;;;;;4.40;2.67;;;;;;;13.20;91.77;100693.75;10331423;28;20046;-69
2021/12/31 00:27:32;;;;;;;3.35;2.08;;;;;;;13.26;91.15;100685.22;10330120;28;20121;-69
2021/12/31 00:32:34;;;;;;;4.78;2.22;;;;;;;13.29;90.90;100698.31;10325836;28;20207;-66
2021/12/31 00:37:37;;;;;;;2.53;1.98;;;;;;;13.30;90.75;100689.31;10329959;28;20046;-68
2021/12/31 00:42:39;;;;;;;3.33;1.88;;;;;;;13.23;90.50;100690.81;10332480;28;20074;-68
2021/12/31 00:47:41;;;;;;;3.00;1.90;;;;;;;13.26;90.78;100696.75;10342604;28;24607;-68
2021/12/31 00:52:43;;;;;;;3.45;2.08;;;;;;;13.22;90.41;100689.13;10335842;28;20062;-67
2021/12/31 00:57:45;;;;;;;4.72;2.45;;;;;;;13.29;90.65;100695.66;10330410;28;20133;-67
2021/12/31 01:02:46;;;;;;;3.85;1.60;;;;;;;13.31;90.12;100692.84;10346302;28;20050;-70
2021/12/31 01:07:48;;;;;;;2.55;1.80;;;;;;;13.34;89.83;100682.75;10318906;28;20045;-69
2021/12/31 01:12:50;;;;;;;3.85;1.58;;;;;;;13.35;89.18;100678.28;10327413;28;20138;-69
2021/12/31 01:18:16;;;;;;;3.78;1.20;;;;;;;13.37;88.75;100678.97;10322863;28;20042;-70
2021/12/31 01:23:16;;;;;;;3.13;1.38;;;;;;;13.35;88.44;100683.63;10334050;28;20580;-69
2021/12/31 01:28:19;;;;;;;3.45;1.45;;;;;;;13.40;88.43;100697.44;10328861;28;20121;-68
2021/12/31 01:33:22;;;;;;;2.72;1.48;;;;;;;13.40;88.23;100702.78;10329906;28;20392;-71
2021/12/31 01:38:23;;;;;;;5.43;1.50;;;;;;;13.37;88.04;100698.53;10328849;28;20048;-70
2021/12/31 01:43:25;;;;;;;3.30;1.55;;;;;;;13.33;87.98;100702.44;10331030;28;20149;-69
2021/12/31 01:48:35;;;;;;;2.85;1.35;;;;;;;13.37;88.29;100701.19;10325564;28;20064;-69
2021/12/31 01:53:36;;;;;;;3.83;2.05;;;;;;;13.38;88.23;100699.41;10318004;28;20089;-69
2021/12/31 01:58:38;;;;;;;2.97;1.70;;;;;;;13.42;87.76;100714.19;10334142;28;20140;-69
2021/12/31 02:03:39;;;;;;;5.10;1.60;;;;;;;13.34;87.65;100712.16;10438085;23;20056;-61
2021/12/31 02:08:41;;;;;;;3.20;1.30;;;;;;;13.42;87.85;100711.50;10465819;28;20135;-62
2021/12/31 02:13:42;;;;;;;3.92;1.65;;;;;;;13.47;87.47;100700.44;10465368;28;20270;-60
2021/12/31 02:18:44;;;;;;;5.88;2.00;;;;;;;13.49;86.86;100690.44;10466271;28;20123;-60
2021/12/31 02:23:50;;;;;;;4.00;2.20;;;;;;;13.56;86.70;100700.47;10465563;28;20051;-60
2021/12/31 02:28:52;;;;;;;4.30;1.90;;;;;;;13.54;86.54;100705.13;10455219;28;20062;-60
2021/12/31 02:33:53;;;;;;;4.22;1.98;;;;;;;13.40;86.43;100695.59;10467086;28;20131;-61
2021/12/31 02:38:54;;;;;;;5.68;2.28;;;;;;;13.43;86.18;100700.69;10466922;28;20048;-61
2021/12/31 02:43:56;;;;;;;4.72;1.60;;;;;;;13.40;86.68;100698.25;10452969;28;20051;-62
2021/12/31 02:48:57;;;;;;;5.82;1.73;;;;;;;13.30;86.64;100701.81;10468420;28;20048;-60
2021/12/31 02:54:05;;;;;;;4.25;2.03;;;;;;;13.38;86.66;100710.09;10472682;28;20123;-60
2021/12/31 02:59:08;;;;;;;3.90;1.60;;;;;;;13.40;86.56;100703.63;10467151;28;20566;-62
2021/12/31 03:04:10;;;;;;;5.13;1.58;;;;;;;13.49;86.11;100715.34;10472408;28;20041;-60
2021/12/31 03:09:14;;;;;;;3.42;1.60;;;;;;;13.41;85.62;100704.47;10472854;28;20069;-60
2021/12/31 03:14:16;;;;;;;5.28;1.75;;;;;;;13.42;85.57;100711.50;10471545;28;20045;-60
2021/12/31 03:19:19;;;;;;;5.25;1.90;;;;;;;13.35;85.37;100695.16;10472778;28;20044;-60
2021/12/31 03:24:21;;;;;;;4.20;1.98;;;;;;;13.41;85.26;100689.28;10454144;28;20197;-60
2021/12/31 03:29:23;;;;;;;4.85;2.00;;;;;;;13.42;85.24;100680.28;10455188;28;20551;-60
2021/12/31 03:34:24;;;;;;;3.80;1.80;;;;;;;13.50;84.85;100682.28;10472266;28;20044;-60
2021/12/31 03:39:26;;;;;;;4.35;1.52;;;;;;;13.41;84.71;100683.09;10472250;28;20059;-61
2021/12/31 03:44:28;;;;;;;3.90;1.58;;;;;;;13.43;85.16;100687.31;10447889;28;20129;-61
2021/12/31 03:49:29;;;;;;;3.30;1.55;;;;;;;13.32;84.95;100676.66;10461640;28;20045;-61
2021/12/31 03:54:30;;;;;;;6.18;2.00;;;;;;;13.43;84.69;100687.31;10470374;28;20148;-61
2021/12/31 03:59:32;;;;;;;4.22;1.95;;;;;;;13.41;84.51;100686.59;10466421;28;20044;-60
2021/12/31 04:04:33;;;;;;;4.18;2.15;;;;;;;13.34;84.63;100682.75;10472915;28;20136;-60
2021/12/31 04:09:34;;;;;;;3.63;1.95;;;;;;;13.24;84.94;100671.09;10470846;28;20594;-60
2021/12/31 04:14:36;;;;;;;5.15;2.20;;;;;;;13.17;85.51;100669.97;10470453;28;20052;-61
2021/12/31 04:19:37;;;;;;;3.85;2.10;;;;;;;13.20;85.88;100662.50;10470067;28;20123;-60
2021/12/31 04:29:50;;;;;;;5.05;2.13;;;;;;;13.06;85.50;100657.47;10469915;28;20056;-60
2021/12/31 04:34:51;;;;;;;4.95;2.80;;;;;;;13.09;85.78;100667.94;10467265;28;20131;-60
2021/12/31 04:39:53;;;;;;;5.13;2.75;;;;;;;13.13;85.45;100663.16;10469877;28;20581;-60
2021/12/31 04:44:55;;;;;;;5.35;2.33;;;;;;;13.02;85.54;100653.41;10451291;28;20040;-60
2021/12/31 04:49:56;;;;;;;4.90;1.90;;;;;;;12.96;85.96;100652.09;10465203;28;20664;-60
2021/12/31 04:54:58;;;;;;;4.47;2.40;;;;;;;12.88;86.15;100654.53;10469073;28;20054;-61
2021/12/31 04:59:59;;;;;;;4.32;2.10;;;;;;;12.79;86.16;100641.94;10468839;28;20044;-60
2021/12/31 05:05:04;;;;;;;3.95;2.33;;;;;;;12.71;86.56;100635.41;10468420;28;20582;-61
2021/12/31 05:10:07;;;;;;;4.35;2.53;;;;;;;12.76;86.75;100632.41;10466094;28;20250;-61
2021/12/31 05:15:10;;;;;;;5.70;2.85;;;;;;;12.67;86.23;100626.00;10448902;28;20054;-61
2021/12/31 05:20:11;;;;;;;4.60;2.65;;;;;;;12.72;86.90;100645.13;10465235;28;20128;-60
2021/12/31 05:25:12;;;;;;;4.85;2.80;;;;;;;12.83;86.54;100656.75;10467734;28;20048;-60
2021/12/31 05:30:14;;;;;;;4.80;2.78;;;;;;;12.86;86.28;100659.16;10466859;28;20413;-61
2021/12/31 05:35:15;;;;;;;6.22;3.22;;;;;;;12.86;86.39;100651.16;10467007;28;20068;-60
2021/12/31 05:40:17;;;;;;;3.10;2.35;;;;;;;12.86;86.48;100656.50;10467767;28;20071;-60
2021/12/31 05:45:18;;;;;;;3.72;2.65;;;;;;;12.88;86.41;100659.88;10448685;28;20140;-60
2021/12/31 05:50:29;;;;;;;5.50;2.88;;;;;;;12.84;86.80;100666.47;10461685;28;20048;-60
2021/12/31 05:55:30;;;;;;;6.30;3.17;;;;;;;12.94;86.62;100667.41;10457231;28;20143;-61
2021/12/31 06:00:32;;;;;;;5.60;2.55;;;;;;;12.85;85.78;100660.13;10458100;28;20045;-60
2021/12/31 06:05:33;;;;;;;4.55;2.55;;;;;;;12.90;86.34;100674.81;10456474;28;20059;-62
2021/12/31 06:10:40;;;;;;;4.50;3.42;;;;;;;12.81;86.58;100669.41;10455976;28;20512;-61
2021/12/31 06:15:42;;;;;;;3.63;2.80;;;;;;;12.68;86.48;100651.72;10462112;28;20052;-61
2021/12/31 06:20:43;;;;;;;4.45;3.10;;;;;;;12.63;87.09;100661.94;10460330;28;20052;-61
2021/12/31 06:25:45;;;;;;;4.60;3.05;;;;;;;12.55;87.45;100659.06;10461228;28;20135;-61
2021/12/31 06:30:46;;;;;;;5.50;3.15;;;;;;;12.44;88.20;100651.06;10456474;28;20044;-62
2021/12/31 06:35:48;;;;;;;7.80;3.80;;;;;;;12.40;88.21;100661.16;10444299;28;20056;-59
2021/12/31 06:40:50;;;;;;;4.90;3.15;;;;;;;12.38;88.36;100666.63;10451032;28;20131;-59
2021/12/31 06:45:51;;;;;;;4.32;3.17;;;;;;;12.28;89.07;100673.69;10460402;28;20069;-59
2021/12/31 06:50:53;;;;;;;6.60;3.33;;;;;;;12.13;89.52;100674.91;10425662;28;20059;-59
2021/12/31 06:55:54;;;;;;;4.50;3.40;;;;;;;12.06;90.32;100671.06;10452594;28;20040;-59
2021/12/31 07:00:56;;;;;;;6.65;4.35;;;;;;;11.98;90.58;100667.19;10454247;28;20048;-59
2021/12/31 07:05:57;;;;;;;7.25;3.90;;;;;;;11.97;90.78;100667.31;10452909;28;20048;-60
2021/12/31 07:10:59;;;;;;;6.10;3.55;;;;;;;11.88;91.31;100682.19;10456535;28;21050;-60
2021/12/31 07:16:00;;;;;;;8.13;3.83;;;;;;;11.83;91.61;100679.03;10455000;28;20123;-60
2021/12/31 07:21:02;;;;;;;7.55;4.40;;;;;;;11.78;91.63;100675.88;10456192;28;20636;-59
2021/12/31 07:26:04;;;;;;;5.93;4.65;;;;;;;11.75;91.86;100670.78;10456250;28;20040;-60
2021/12/31 07:31:06;;;;;;;11.35;5.85;;;;;;;11.56;92.70;100663.38;10423471;28;20090;-60
2021/12/31 07:36:08;;;;;;;5.85;4.20;;;;;;;11.64;92.40;100674.31;10456846;28;20060;-59
2021/12/31 07:41:10;;;;;;;5.07;3.88;;;;;;;11.56;93.04;100661.56;10460306;28;20061;-58
2021/12/31 07:46:12;;;;;;;5.65;3.58;;;;;;;11.59;93.07;100663.13;10447304;28;20080;-60
2021/12/31 07:51:14;;;;;;;7.55;4.03;;;;;;;11.54;92.76;100665.31;10450847;28;20052;-61
2021/12/31 07:56:19;;;;;;;6.50;4.35;;;;;;;11.60;93.13;100673.66;10422737;28;20056;-59
2021/12/31 08:01:20;;;;;;;6.00;3.35;;;;;;;11.58;92.69;100680.94;10438396;28;20083;-60
2021/12/31 08:06:21;;;;;;;4.88;3.67;;;;;;;11.46;93.11;100674.75;10453387;28;20139;-60
2021/12/31 08:11:23;;;;;;;3.88;2.70;;;;;;;11.57;92.96;100689.91;10320106;28;20037;-59
2021/12/31 08:16:24;;;;;;;3.33;2.78;;;;;;;11.53;92.53;100683.13;10327681;28;20500;-59
2021/12/31 08:21:25;;;;;;;3.90;2.80;;;;;;;11.62;92.13;100690.41;10319869;28;20057;-61
2021/12/31 08:26:27;;;;;;;5.57;2.90;;;;;;;11.58;92.25;100693.44;10320628;28;20058;-61
2021/12/31 08:31:28;;;;;;;4.10;2.92;;;;;;;11.59;91.90;100672.00;10326762;28;20077;-60
2021/12/31 08:36:29;;;;;;;5.63;3.10;;;;;;;11.62;91.84;100686.88;10340333;28;20056;-61
2021/12/31 08:41:31;;;;;;;4.63;3.10;;;;;;;11.61;92.03;100685.22;10400771;28;20048;-61
2021/12/31 08:46:49;;;;;;;3.63;2.90;;;;;;;11.66;91.78;100699.00;10389667;28;20592;-62
2021/12/31 08:51:51;;;;;;;7.90;2.67;;;;;;;11.73;91.22;100680.72;10421711;28;20053;-62
2021/12/31 08:56:52;;;;;;;3.85;3.03;;;;;;;11.72;90.99;100692.34;10408882;28;20049;-60
2021/12/31 09:01:55;;;;;;;5.25;3.28;;;;;;;11.74;91.00;100685.94;10403029;28;20107;-60
2021/12/31 09:06:57;;;;;;;4.95;3.00;;;;;;;11.71;90.68;100685.31;10406155;28;20049;-60
2021/12/31 09:11:58;;;;;;;4.03;2.60;;;;;;;11.80;90.57;100695.25;10399865;28;20136;-62
2021/12/31 09:17:00;;;;;;;3.67;2.55;;;;;;;11.83;90.09;100692.38;10409590;28;20045;-61
2021/12/31 09:22:04;;;;;;;3.30;2.67;;;;;;;11.98;89.93;100691.19;10394811;28;20500;-60
2021/12/31 09:27:05;;;;;;;5.60;3.27;;;;;;;12.05;88.79;100674.69;10402760;28;21296;-60
2021/12/31 09:32:07;;;;;;;4.22;2.83;;;;;;;12.12;90.17;100686.56;10405802;28;20057;-62
2021/12/31 09:37:12;;;;;;;4.75;2.65;;;;;;;12.31;88.03;100673.44;10393612;28;20059;-62
2021/12/31 09:42:13;;;;;;;;;;;;;;;12.21;87.46;100683.16;10395216;28;20590;-61
2021/12/31 09:47:16;;;;;;;4.47;2.88;;;;;;;12.15;87.27;100663.16;10405692;28;19921;-61
2021/12/31 09:52:18;;;;;;;4.20;2.70;;;;;;;12.39;86.37;100686.16;10386798;28;20068;-60
2021/12/31 09:57:20;;;;;;;3.67;3.10;;;;;;;12.47;86.14;100682.88;10401070;28;20045;-61
2021/12/31 10:02:33;;;;;;;3.42;3.13;;;;;;;12.62;85.11;100683.44;10405768;28;20053;-64
2021/12/31 10:07:42;;;;;;;5.68;3.22;;;;;;;12.67;84.60;100702.59;10399970;28;20059;-62
2021/12/31 10:12:58;;;;;;;6.63;3.40;;;;;;;12.62;84.56;100689.59;10395391;28;20044;-61
2021/12/31 10:18:08;;;;;;;6.38;3.15;;;;;;;13.02;82.96;100701.50;10402330;28;20432;-60
2021/12/31 10:23:15;;;;;;;4.22;2.60;;;;;;;13.02;81.80;100710.34;10398860;28;20822;-59
2021/12/31 10:28:17;;;;;;;4.53;2.58;;;;;;;12.94;81.95;100707.50;10409388;28;20049;-60
2021/12/31 10:33:39;;;;;;;4.88;2.75;;;;;;;13.13;81.00;100706.78;10397371;28;20059;-60
2021/12/31 10:38:40;;;;;;;5.10;3.25;;;;;;;13.66;79.71;100708.56;10391804;28;20044;-59
2021/12/31 10:43:42;;;;;;;5.25;3.42;;;;;;;14.41;74.98;100709.16;10406387;28;20543;-58
2021/12/31 10:48:52;;;;;;;3.15;2.85;;;;;;;14.79;72.79;100707.53;10398167;28;20055;-61
2021/12/31 10:54:47;;;;;;;4.65;3.17;;;;;;;15.24;71.27;100699.91;10405637;28;20048;-61
2021/12/31 10:59:50;;;;;;;3.75;3.17;;;;;;;16.81;64.17;100700.94;10382458;28;20060;-60
2021/12/31 11:04:52;;;;;;;3.30;2.53;;;;;;;17.17;63.38;100698.25;10408042;28;20053;-60
2021/12/31 11:09:58;;;;;;;3.42;2.80;;;;;;;16.64;63.47;100682.97;10409665;28;20045;-61
2021/12/31 11:14:59;;;;;;;5.30;2.88;;;;;;;18.90;57.60;100669.47;10396442;28;20049;-61
2021/12/31 11:20:01;;;;;;;4.15;2.10;;;;;;;18.86;55.44;100681.59;10411698;28;20048;-60
2021/12/31 11:25:18;;;;;;;3.03;1.70;;;;;;;16.75;61.40;100685.41;10385510;28;20425;-59
2021/12/31 11:30:38;;;;;;;3.17;1.85;;;;;;;16.01;65.05;100655.09;10402933;28;20083;-62
2021/12/31 11:36:02;;;;;;;2.45;1.77;;;;;;;15.87;65.54;100633.09;10410401;28;20044;-60
2021/12/31 11:41:04;;;;;;;3.63;1.92;;;;;;;15.23;67.59;100649.97;10406915;28;20053;-60
2021/12/31 11:46:09;;;;;;;2.92;2.13;;;;;;;15.48;66.94;100649.31;10409914;28;20049;-61
2021/12/31 11:51:11;;;;;;;3.80;1.83;;;;;;;15.71;66.69;100643.59;10404083;28;20088;-59
2021/12/31 11:56:13;;;;;;;3.42;1.83;;;;;;;15.29;66.58;100601.09;10412277;28;20055;-60
2021/12/31 12:01:36;;;;;;;4.18;2.03;;;;;;;15.14;67.24;100604.22;10411607;28;20510;-59
2021/12/31 12:06:50;;;;;;;3.23;1.53;;;;;;;14.56;69.70;100581.03;10411300;28;20539;-59
2021/12/31 12:12:04;;;;;;;1.98;1.20;;;;;;;14.49;70.82;100594.13;10397504;28;20358;-59
2021/12/31 12:17:05;;;;;;;3.65;2.13;;;;;;;14.48;70.67;100600.44;10408597;28;20788;-61
2021/12/31 12:22:06;;;;;;;1.70;1.45;;;;;;;14.44;71.58;100596.38;10408556;28;20063;-58
2021/12/31 12:27:13;;;;;;;2.90;1.90;;;;;;;14.54;71.54;100595.53;10411555;28;20581;-60
2021/12/31 12:32:16;;;;;;;4.00;2.13;;;;;;;14.42;71.46;100598.34;10409267;28;20047;-58
2021/12/31 12:37:25;;;;;;;2.27;1.53;;;;;;;14.83;70.41;100600.91;10400497;28;20049;-60
2021/12/31 12:42:27;;;;;;;2.90;1.88;;;;;;;14.85;70.17;100593.56;10409010;28;20064;-60
2021/12/31 12:47:28;;;;;;;3.40;2.50;;;;;;;17.29;61.88;100554.44;10392671;28;20053;-60
2021/12/31 12:52:30;;;;;;;4.13;2.40;;;;;;;16.30;64.21;100546.63;10392886;28;20791;-62
2021/12/31 12:57:31;;;;;;;3.50;2.38;;;;;;;15.23;68.36;100542.69;10400758;28;20525;-60
2021/12/31 13:02:43;;;;;;;2.97;2.25;;;;;;;14.45;71.09;100524.91;10406625;28;20053;-63
2021/12/31 13:07:51;;;;;;;4.72;1.85;;;;;;;14.21;73.11;100525.34;10386080;28;20159;-61
2021/12/31 13:12:53;;;;;;;2.88;1.90;;;;;;;14.08;74.09;100498.84;10399676;28;20467;-62
2021/12/31 13:17:56;;;;;;;2.00;1.70;;;;;;;14.53;72.20;100497.41;10406889;28;20067;-63
2021/12/31 13:23:01;;;;;;;3.43;2.53;;;;;;;14.02;74.67;100527.03;10402156;28;20049;-61
2021/12/31 13:28:14;;;;;;;4.55;2.10;;;;;;;13.74;76.22;100550.06;10403877;28;20127;-61
2021/12/31 13:33:25;;;;;;;7.18;2.72;;;;;;;13.63;76.62;100532.31;10395389;28;20051;-59
2021/12/31 13:38:26;;;;;;;4.03;3.05;;;;;;;13.72;76.71;100528.81;10388076;28;20900;-60
2021/12/31 13:43:29;;;;;;;3.88;2.25;;;;;;;13.85;76.23;100538.41;10399505;28;20059;-61
2021/12/31 13:48:30;;;;;;;3.58;2.60;;;;;;;13.90;76.34;100539.69;10406000;28;20087;-59
2021/12/31 13:53:32;;;;;;;4.88;2.83;;;;;;;14.01;75.82;100525.31;10398831;28;20402;-61
2021/12/31 13:58:39;;;;;;;3.50;2.67;;;;;;;14.10;75.29;100519.13;10384496;28;20048;-60
2021/12/31 14:03:41;;;;;;;6.05;2.83;;;;;;;14.06;75.68;100523.06;10401718;28;20094;-60
2021/12/31 14:08:42;;;;;;;5.07;3.58;;;;;;;14.30;74.76;100511.94;10413082;28;20869;-62
2021/12/31 14:13:46;;;;;;;8.10;4.43;;;;;;;14.39;74.47;100512.09;10391019;28;20551;-60
2021/12/31 14:18:48;;;;;;;4.15;3.28;;;;;;;14.24;74.44;100514.34;10403324;28;20075;-60
2021/12/31 14:23:49;;;;;;;3.65;2.95;;;;;;;14.17;75.05;100506.00;10382730;28;20049;-62
2021/12/31 14:28:51;;;;;;;3.55;2.60;;;;;;;14.02;76.00;100513.66;10387112;28;20053;-61
2021/12/31 14:33:52;;;;;;;4.15;2.95;;;;;;;13.79;76.99;100513.03;10402406;28;20049;-61
2021/12/31 14:38:53;;;;;;;3.72;3.03;;;;;;;13.58;77.65;100499.75;10397438;28;20056;-64
2021/12/31 14:43:59;;;;;;;4.97;3.33;;;;;;;13.47;78.96;100518.59;10392353;28;20049;-61
2021/12/31 14:49:00;;;;;;;3.55;3.20;;;;;;;13.44;79.50;100517.88;10402500;28;20056;-60
2021/12/31 14:54:02;;;;;;;4.72;3.50;;;;;;;13.32;79.81;100524.28;10403715;28;20045;-60
2021/12/31 14:59:05;;;;;;;4.43;3.78;;;;;;;13.20;80.26;100531.53;10397947;28;20414;-59
2021/12/31 15:04:07;;;;;;;4.05;3.08;;;;;;;13.15;80.77;100546.28;10400476;28;20041;-59
2021/12/31 15:09:09;;;;;;;4.18;3.00;;;;;;;12.97;81.57;100556.72;10392498;28;20053;-60
2021/12/31 15:14:10;;;;;;;6.38;3.53;;;;;;;12.87;82.36;100551.34;10406533;28;20057;-63
2021/12/31 15:19:11;;;;;;;4.50;3.85;;;;;;;12.85;82.42;100547.94;10381114;28;20053;-59
2021/12/31 15:24:15;;;;;;;4.55;3.78;;;;;;;12.73;83.05;100540.00;10395559;28;20071;-60
2021/12/31 15:29:17;;;;;;;4.03;3.63;;;;;;;12.90;83.30;100577.78;10388180;28;20130;-61
2021/12/31 15:34:18;;;;;;;5.40;3.92;;;;;;;12.79;83.87;100593.88;10403482;28;20055;-59
2021/12/31 15:39:20;;;;;;;5.30;4.13;;;;;;;12.76;84.28;100596.81;10380693;28;20490;-60
2021/12/31 15:44:22;;;;;;;4.47;3.80;;;;;;;12.75;84.90;100621.84;10399556;28;20426;-61
2021/12/31 15:49:25;;;;;;;6.45;4.28;;;;;;;12.80;85.08;100630.31;10379848;28;20063;-60
2021/12/31 15:54:27;;;;;;;5.10;4.13;;;;;;;12.69;85.36;100640.06;10386948;28;21370;-62
2021/12/31 15:59:28;;;;;;;6.38;4.57;;;;;;;12.64;85.77;100626.25;10405566;28;20510;-62
2021/12/31 16:04:30;;;;;;;7.30;4.43;;;;;;;12.67;85.63;100631.34;10409888;28;20060;-60
2021/12/31 16:09:32;;;;;;;5.68;4.72;;;;;;;12.47;86.29;100629.47;10405335;28;20059;-60
2021/12/31 16:14:33;;;;;;;4.88;4.45;;;;;;;12.46;86.38;100627.75;10410099;28;20053;-60
2021/12/31 16:19:34;;;;;;;4.50;4.10;;;;;;;12.40;86.36;100633.59;10395845;28;20084;-60
2021/12/31 16:24:36;;;;;;;5.75;5.25;;;;;;;12.23;86.04;100625.16;10399084;28;20049;-60
2021/12/31 16:29:49;;;;;;;5.28;3.72;;;;;;;12.14;86.72;100636.59;10408363;28;20134;-60
2021/12/31 16:34:55;;;;;;;4.00;3.60;;;;;;;12.13;85.38;100637.53;10405200;28;20420;-61
2021/12/31 16:39:58;;;;;;;5.30;4.55;;;;;;;12.02;85.21;100644.63;10404540;28;20041;-61
2021/12/31 16:45:00;;;;;;;4.13;3.72;;;;;;;11.90;84.07;100650.88;10403835;28;20053;-62
2021/12/31 16:50:03;;;;;;;5.03;4.45;;;;;;;11.73;84.58;100664.72;10405560;28;20051;-60
2021/12/31 16:55:06;;;;;;;4.90;4.40;;;;;;;11.70;84.63;100672.97;10407016;28;20060;-62
2021/12/31 17:00:08;;;;;;;4.40;4.00;;;;;;;11.58;84.82;100670.28;10397417;28;20068;-63
2021/12/31 17:05:13;;;;;;;6.40;5.13;;;;;;;11.59;84.63;100672.00;10404478;28;20068;-62
2021/12/31 17:10:18;;;;;;;8.60;4.57;;;;;;;11.40;85.09;100656.56;10399990;28;20045;-63
2021/12/31 17:15:21;;;;;;;6.40;4.40;;;;;;;11.43;84.81;100666.16;10403794;28;20132;-63
2021/12/31 17:20:22;;;;;;;6.75;4.82;;;;;;;11.29;85.43;100669.91;10404316;28;20367;-62
2021/12/31 17:25:24;;;;;;;6.78;5.10;;;;;;;11.24;85.81;100678.22;10401970;28;20913;-63
2021/12/31 17:30:26;;;;;;;7.47;6.53;;;;;;;11.19;86.20;100682.22;10379465;28;20198;-63
2021/12/31 17:35:27;;;;;;;7.93;7.00;;;;;;;11.18;86.09;100694.69;10396487;28;20410;-62
2021/12/31 17:40:29;;;;;;;7.55;5.78;;;;;;;11.16;86.30;100680.63;10388878;28;20526;-63
2021/12/31 17:45:32;;;;;;;6.05;5.45;;;;;;;11.16;86.31;100677.13;10404562;28;20061;-61
2021/12/31 17:50:33;;;;;;;6.93;6.22;;;;;;;11.30;86.20;100699.09;10391083;28;20050;-60
2021/12/31 17:55:35;;;;;;;13.68;9.68;;;;;;;11.28;86.15;100706.34;10396187;28;20049;-61
2021/12/31 18:00:36;;;;;;;9.73;6.82;;;;;;;11.38;85.99;100710.97;10399627;28;20047;-61
2021/12/31 18:05:38;;;;;;;7.57;6.78;;;;;;;11.49;85.42;100719.84;10404397;28;20234;-61
2021/12/31 18:10:39;;;;;;;11.15;8.10;;;;;;;11.51;85.14;100746.38;10388278;28;20505;-61
2021/12/31 18:15:40;;;;;;;9.93;7.10;;;;;;;11.45;85.42;100736.19;10397446;28;20068;-60
2021/12/31 18:20:42;;;;;;;7.60;6.82;;;;;;;11.38;86.02;100758.94;10397790;28;20036;-60
2021/12/31 18:25:43;;;;;;;10.05;7.25;;;;;;;11.30;86.27;100746.19;10404426;28;20148;-60
2021/12/31 18:30:45;;;;;;;9.13;7.35;;;;;;;11.42;85.89;100768.41;10402032;28;20050;-59
2021/12/31 18:35:46;;;;;;;9.90;7.47;;;;;;;11.48;85.48;100782.13;10398244;28;20283;-60
2021/12/31 18:40:48;;;;;;;9.30;7.82;;;;;;;11.51;85.22;100802.34;10409055;28;20053;-61
2021/12/31 18:45:50;;;;;;;10.13;8.50;;;;;;;11.63;84.80;100806.78;10397771;28;20124;-60
2021/12/31 18:50:51;;;;;;;9.27;7.40;;;;;;;11.62;84.47;100806.88;10396561;28;20095;-64
2021/12/31 18:55:53;;;;;;;9.13;7.28;;;;;;;11.61;84.37;100822.03;10401205;28;20120;-62
2021/12/31 19:00:54;;;;;;;10.07;7.15;;;;;;;11.68;84.09;100835.75;10398857;28;20192;-60
2021/12/31 19:05:56;;;;;;;7.50;6.53;;;;;;;11.64;83.72;100832.47;10427493;28;20037;-64
2021/12/31 19:10:57;;;;;;;8.88;7.45;;;;;;;11.63;83.71;100835.25;10392613;28;20048;-60
2021/12/31 19:15:59;;;;;;;8.20;6.13;;;;;;;11.67;83.59;100845.56;10399506;28;20067;-63
2021/12/31 19:21:05;;;;;;;7.15;6.45;;;;;;;11.74;83.42;100856.63;10391586;28;20060;-62
2021/12/31 19:26:07;;;;;;;7.45;6.72;;;;;;;11.79;83.24;100853.63;10400286;28;20045;-62
2021/12/31 19:31:08;;;;;;;9.50;6.65;;;;;;;11.73;83.29;100848.75;10380452;28;20988;-63
2021/12/31 19:36:10;;;;;;;10.18;6.95;;;;;;;11.77;83.31;100852.84;10386791;28;20112;-60
2021/12/31 19:41:11;;;;;;;7.20;6.28;;;;;;;11.65;83.65;100866.19;10404336;28;20059;-60
2021/12/31 19:46:12;;;;;;;7.05;6.35;;;;;;;11.73;83.73;100878.09;10407004;28;20049;-60
2021/12/31 19:51:14;;;;;;;6.53;5.88;;;;;;;11.91;83.45;100883.84;10404646;28;20083;-61
2021/12/31 19:56:15;;;;;;;6.80;6.07;;;;;;;11.93;82.77;100893.44;10399829;28;20044;-60
2021/12/31 20:01:17;;;;;;;7.45;5.65;;;;;;;11.81;83.05;100881.00;10413773;28;20415;-60
2021/12/31 20:06:19;;;;;;;7.75;5.68;;;;;;;11.84;83.52;100880.78;10408674;28;21438;-60
2021/12/31 20:11:20;;;;;;;8.90;6.20;;;;;;;11.89;83.34;100883.97;10408155;28;20652;-61
2021/12/31 20:16:21;;;;;;;6.60;5.90;;;;;;;11.97;83.16;100878.91;10368909;28;20054;-60
2021/12/31 20:21:23;;;;;;;6.75;5.43;;;;;;;12.01;83.17;100884.88;10394527;28;20055;-60
2021/12/31 20:26:24;;;;;;;7.93;5.93;;;;;;;12.06;82.94;100889.84;10397905;28;20162;-61
2021/12/31 20:31:26;;;;;;;6.63;5.80;;;;;;;12.14;83.00;100893.63;10382149;28;20053;-61
2021/12/31 20:36:28;;;;;;;6.70;6.00;;;;;;;12.10;83.33;100908.19;10404818;28;20569;-62
2021/12/31 20:41:29;;;;;;;9.27;6.22;;;;;;;12.07;83.41;100915.56;10404516;28;21807;-63
2021/12/31 20:46:31;;;;;;;7.13;5.63;;;;;;;12.03;83.68;100915.78;10400480;28;20125;-60
2021/12/31 20:51:32;;;;;;;7.97;5.60;;;;;;;12.01;83.45;100920.41;10400001;28;20076;-61
2021/12/31 20:56:33;;;;;;;6.85;5.28;;;;;;;12.19;83.71;100928.81;10404386;28;20856;-61
2021/12/31 21:01:35;;;;;;;5.60;5.10;;;;;;;12.18;83.01;100929.78;10406148;28;20055;-60
2021/12/31 21:06:37;;;;;;;8.05;6.07;;;;;;;12.15;83.38;100926.50;10388809;28;20053;-61
2021/12/31 21:11:38;;;;;;;5.82;5.30;;;;;;;12.17;83.59;100921.91;10406594;28;20061;-62
2021/12/31 21:16:40;;;;;;;7.30;5.88;;;;;;;12.13;83.48;100920.41;10405862;28;20056;-61
2021/12/31 21:21:41;;;;;;;6.82;6.03;;;;;;;12.19;83.70;100936.84;10400303;28;20707;-61
2021/12/31 21:26:43;;;;;;;8.25;6.18;;;;;;;12.21;83.67;100931.38;10394200;28;20063;-60
2021/12/31 21:31:45;;;;;;;8.60;6.80;;;;;;;12.19;83.87;100920.81;10405250;28;20102;-61
2021/12/31 21:36:46;;;;;;;7.10;6.07;;;;;;;12.28;83.74;100935.28;10398451;28;20712;-62
2021/12/31 21:41:48;;;;;;;7.57;6.80;;;;;;;12.17;84.33;100928.09;10396712;28;20524;-61
2021/12/31 21:46:49;;;;;;;8.70;5.97;;;;;;;12.23;84.79;100932.09;10400894;28;20049;-61
2021/12/31 21:51:55;;;;;;;6.10;5.45;;;;;;;12.29;84.53;100944.13;10408905;28;20049;-61
2021/12/31 21:57:00;;;;;;;6.25;5.38;;;;;;;12.23;85.30;100945.44;10391601;28;20549;-62
2021/12/31 22:02:02;;;;;;;6.20;5.60;;;;;;;12.33;85.08;100959.78;10395405;28;20063;-61
2021/12/31 22:07:05;;;;;;;4.85;4.45;;;;;;;12.34;85.08;100965.97;10401732;28;20049;-61
2021/12/31 22:12:07;;;;;;;5.60;4.97;;;;;;;12.43;85.00;100956.41;10369445;28;20060;-61
2021/12/31 22:17:08;;;;;;;7.47;6.38;;;;;;;12.43;85.07;100964.41;10387916;28;20139;-63
2021/12/31 22:22:10;;;;;;;5.53;5.05;;;;;;;12.43;85.27;100959.94;10385808;28;20047;-63
2021/12/31 22:27:12;;;;;;;6.32;5.72;;;;;;;12.42;85.39;100958.25;10391431;28;20048;-61
2021/12/31 22:32:14;;;;;;;6.18;4.78;;;;;;;12.46;85.69;100970.38;10399453;28;20049;-60
2021/12/31 22:37:15;;;;;;;6.68;5.72;;;;;;;12.46;85.83;100985.53;10389856;28;20056;-62
2021/12/31 22:42:16;;;;;;;7.68;5.18;;;;;;;12.41;86.07;100975.22;10401519;28;20060;-60
2021/12/31 22:47:39;;;;;;;7.63;5.75;;;;;;;12.50;86.03;100995.03;10389676;28;23120;-62
2021/12/31 22:52:40;;;;;;;8.45;6.78;;;;;;;12.41;86.63;100982.38;10405704;28;20053;-58
2021/12/31 22:57:43;;;;;;;6.82;6.07;;;;;;;12.45;86.69;100997.22;10383828;28;20134;-61
2021/12/31 23:02:44;;;;;;;8.10;7.35;;;;;;;12.42;87.00;101005.47;10403930;28;20055;-60
2021/12/31 23:07:46;;;;;;;68.18;61.10;;;;;;;12.43;87.10;101001.78;10402787;28;20053;-60
2021/12/31 23:12:47;;;;;;;47.15;42.22;;;;;;;12.41;87.17;101015.25;10396290;28;20049;-60
2021/12/31 23:17:49;;;;;;;40.47;36.45;;;;;;;12.43;87.07;101017.81;10389105;28;20503;-61
2021/12/31 23:22:51;;;;;;;30.38;27.33;;;;;;;12.47;86.89;101024.63;10407570;28;20044;-61